Time;durP1;ratioP1;P1;durP2;ratioP2;P2;SDS_P1;SDS_P2;PMS_P1;PMS_P2;Temp;Humidity;BMP_temperature;BMP_pressure;BME280_temperature;BME280_humidity;BME280_pressure;Samples;Min_cycle;Max_cycle;Signal;HPM_P1;HPM_P2
2022/06/14 00:01:42;;;;;;;6.45;1.83;;;22.40;49.60;;;;;;5014075;28;20030;-74
2022/06/14 00:04:08;;;;;;;5.50;1.83;;;22.40;49.70;;;;;;5012719;28;20133;-75
2022/06/14 00:06:34;;;;;;;4.63;1.60;;;22.50;49.80;;;;;;5014261;28;20447;-75
2022/06/14 00:09:01;;;;;;;4.47;1.67;;;22.40;49.80;;;;;;5011817;28;20448;-75
2022/06/14 00:11:33;;;;;;;6.05;1.73;;;22.40;49.80;;;;;;5014078;28;20482;-75
2022/06/14 00:14:01;;;;;;;4.68;1.83;;;22.40;49.90;;;;;;5013763;28;20026;-75
2022/06/14 00:16:29;;;;;;;10.32;1.98;;;22.40;49.90;;;;;;5012666;28;20030;-75
2022/06/14 00:18:55;;;;;;;6.25;1.60;;;22.50;50.00;;;;;;5012610;28;20552;-75
2022/06/14 00:21:21;;;;;;;7.43;1.92;;;22.50;50.00;;;;;;5014000;28;20022;-75
2022/06/14 00:23:48;;;;;;;3.80;1.65;;;22.50;50.10;;;;;;5013692;28;20549;-75
2022/06/14 00:26:14;;;;;;;4.50;1.60;;;22.50;50.10;;;;;;5013866;28;20030;-75
2022/06/14 00:28:43;;;;;;;6.30;1.90;;;22.50;50.10;;;;;;5011543;28;20503;-75
2022/06/14 00:31:13;;;;;;;5.47;1.58;;;22.40;50.20;;;;;;5013860;28;20482;-75
2022/06/14 00:33:39;;;;;;;5.28;1.80;;;22.50;50.20;;;;;;5013243;28;20107;-75
2022/06/14 00:36:29;;;;;;;5.55;1.77;;;22.50;50.20;;;;;;5013955;28;20113;-75
2022/06/14 00:39:01;;;;;;;3.55;1.52;;;22.50;50.20;;;;;;5003561;28;20041;-75
2022/06/14 00:41:34;;;;;;;6.63;1.75;;;22.50;50.30;;;;;;5013906;28;20034;-75
2022/06/14 00:44:01;;;;;;;7.60;1.63;;;22.50;50.30;;;;;;5013436;28;20144;-75
2022/06/14 00:46:35;;;;;;;7.28;1.83;;;22.50;50.30;;;;;;5013700;28;20034;-75
2022/06/14 00:49:11;;;;;;;3.63;1.60;;;22.50;50.30;;;;;;5012300;28;20053;-75
2022/06/14 00:51:51;;;;;;;5.15;1.60;;;22.50;50.40;;;;;;5012243;28;20034;-75
2022/06/14 00:54:21;;;;;;;;;;;22.50;50.40;;;;;;5012370;28;20091;-75
2022/06/14 00:56:50;;;;;;;3.33;1.65;;;22.50;50.40;;;;;;5013516;28;20263;-75
2022/06/14 00:59:48;;;;;;;4.40;1.52;;;22.50;50.40;;;;;;5023681;23;20042;-73
2022/06/14 01:02:18;;;;;;;4.43;1.60;;;22.50;50.40;;;;;;4962504;28;20469;-72
2022/06/14 01:04:46;;;;;;;3.15;1.40;;;22.50;50.50;;;;;;5013057;28;20049;-73
2022/06/14 01:07:29;;;;;;;5.50;1.67;;;22.50;50.50;;;;;;5012970;28;20038;-73
2022/06/14 01:10:01;;;;;;;4.57;1.50;;;22.50;50.50;;;;;;5030288;28;20040;-73
2022/06/14 01:12:33;;;;;;;3.83;1.50;;;22.50;50.60;;;;;;5032387;28;20490;-73
2022/06/14 01:15:28;;;;;;;4.85;1.80;;;22.50;50.60;;;;;;5031544;28;20112;-73
2022/06/14 01:18:05;;;;;;;4.10;1.77;;;22.50;50.60;;;;;;5029558;28;20095;-72
2022/06/14 01:20:31;;;;;;;4.40;1.50;;;22.50;50.70;;;;;;5031294;28;20033;-73
2022/06/14 01:22:58;;;;;;;5.18;1.77;;;22.40;50.70;;;;;;5031080;28;20021;-72
2022/06/14 01:25:29;;;;;;;3.28;1.63;;;22.50;50.80;;;;;;5031315;28;20072;-73
2022/06/14 01:27:56;;;;;;;3.47;1.40;;;22.40;50.70;;;;;;5030457;28;20026;-73
2022/06/14 01:30:26;;;;;;;3.28;1.45;;;22.50;50.80;;;;;;5032436;28;20037;-73
2022/06/14 01:33:08;;;;;;;3.35;1.35;;;22.40;50.80;;;;;;5031075;28;20029;-71
2022/06/14 01:35:37;;;;;;;4.85;1.45;;;22.40;50.80;;;;;;5031064;28;20232;-72
2022/06/14 01:38:09;;;;;;;4.53;1.85;;;22.50;50.80;;;;;;5013799;28;20030;-73
2022/06/14 01:41:02;;;;;;;6.22;1.80;;;22.40;50.80;;;;;;5030982;28;20040;-73
2022/06/14 01:44:01;;;;;;;4.63;1.63;;;22.50;50.80;;;;;;5032197;28;20029;-72
2022/06/14 01:46:36;;;;;;;4.63;1.50;;;22.50;50.80;;;;;;5031269;28;20075;-73
2022/06/14 01:52:26;;;;;;;4.15;1.30;;;22.50;50.80;;;;;;5032107;28;20041;-71
2022/06/14 01:55:18;;;;;;;2.58;1.30;;;22.50;50.90;;;;;;5031758;28;20104;-71
2022/06/14 01:58:15;;;;;;;5.15;1.52;;;22.50;50.80;;;;;;5030869;28;20044;-72
2022/06/14 02:00:56;;;;;;;2.53;1.27;;;22.50;50.90;;;;;;5024183;28;20045;-71
2022/06/14 02:06:43;;;;;;;3.90;1.33;;;22.50;51.00;;;;;;5031856;28;20371;-72
2022/06/14 02:09:24;;;;;;;4.40;1.25;;;22.50;51.00;;;;;;5030794;28;20025;-72
2022/06/14 02:11:50;;;;;;;3.60;1.50;;;22.40;51.00;;;;;;5015077;28;20404;-71
2022/06/14 02:14:28;;;;;;;4.22;1.20;;;22.50;51.10;;;;;;5031693;28;20387;-71
2022/06/14 02:17:07;;;;;;;3.40;1.60;;;22.40;51.00;;;;;;5031627;28;20033;-71
2022/06/14 02:19:45;;;;;;;4.28;1.60;;;22.40;51.00;;;;;;5030784;28;20440;-71
2022/06/14 02:22:19;;;;;;;4.55;1.70;;;22.50;51.10;;;;;;5030127;28;20675;-74
2022/06/14 02:25:02;;;;;;;4.82;1.60;;;22.40;51.10;;;;;;5031537;28;20453;-72
2022/06/14 02:27:38;;;;;;;4.80;1.55;;;22.40;51.10;;;;;;5029373;28;20036;-72
2022/06/14 02:30:13;;;;;;;4.00;1.60;;;22.40;51.10;;;;;;5031543;28;20025;-72
2022/06/14 02:32:44;;;;;;;4.70;1.67;;;22.40;51.10;;;;;;5031187;28;20090;-72
2022/06/14 02:35:19;;;;;;;3.08;1.20;;;22.40;51.10;;;;;;5031396;28;20497;-71
2022/06/14 02:38:15;;;;;;;3.35;1.20;;;22.50;51.20;;;;;;5030402;28;20021;-71
2022/06/14 02:41:05;;;;;;;4.82;1.45;;;22.40;51.20;;;;;;5017254;28;20036;-71
2022/06/14 02:43:43;;;;;;;3.13;1.40;;;22.40;51.10;;;;;;5031185;28;20421;-71
2022/06/14 02:46:20;;;;;;;5.88;1.52;;;22.50;51.20;;;;;;5013620;28;20034;-71
2022/06/14 02:48:55;;;;;;;3.05;1.48;;;22.50;51.20;;;;;;5030186;28;20025;-72
2022/06/14 02:51:39;;;;;;;3.10;1.52;;;22.50;51.30;;;;;;4997514;28;20029;-72
2022/06/14 02:54:29;;;;;;;2.88;1.50;;;22.40;51.10;;;;;;5013602;28;20037;-72
2022/06/14 02:56:57;;;;;;;2.38;1.25;;;22.40;51.20;;;;;;5030870;28;20037;-72
2022/06/14 02:59:29;;;;;;;2.33;1.30;;;22.50;51.20;;;;;;5030233;28;20030;-71
2022/06/14 03:02:00;;;;;;;1.70;1.17;;;22.40;51.20;;;;;;5031444;28;20036;-71
2022/06/14 03:05:00;;;;;;;3.03;1.30;;;22.40;51.20;;;;;;5030965;28;20441;-73
2022/06/14 03:07:54;;;;;;;2.42;1.20;;;22.40;51.30;;;;;;5028995;28;20108;-73
2022/06/14 03:10:20;;;;;;;3.33;1.30;;;22.40;51.20;;;;;;5029899;28;20104;-72
2022/06/14 03:13:02;;;;;;;2.85;1.10;;;22.40;51.20;;;;;;5029849;28;20397;-72
2022/06/14 03:15:59;;;;;;;3.53;1.58;;;22.40;51.30;;;;;;5013512;28;20128;-72
2022/06/14 03:18:45;;;;;;;2.67;1.30;;;22.50;51.30;;;;;;5026757;28;20046;-72
2022/06/14 03:21:20;;;;;;;3.67;1.30;;;22.40;51.30;;;;;;5028695;28;20033;-72
2022/06/14 03:23:50;;;;;;;3.53;1.40;;;22.40;51.30;;;;;;5027923;28;20036;-72
2022/06/14 03:26:31;;;;;;;2.70;1.40;;;22.40;51.40;;;;;;5029752;28;20041;-72
2022/06/14 03:29:08;;;;;;;2.75;1.30;;;22.40;51.30;;;;;;5028643;28;20033;-72
2022/06/14 03:31:55;;;;;;;5.45;1.50;;;22.50;51.30;;;;;;5029578;28;20030;-72
2022/06/14 03:34:41;;;;;;;3.63;1.33;;;22.40;51.40;;;;;;5014709;28;20079;-72
2022/06/14 03:37:08;;;;;;;3.60;1.40;;;22.40;51.30;;;;;;5033370;28;20123;-72
2022/06/14 03:39:42;;;;;;;3.45;1.27;;;22.50;51.40;;;;;;5032379;28;20030;-72
2022/06/14 03:42:13;;;;;;;5.90;1.42;;;22.50;51.40;;;;;;5033327;28;20030;-72
2022/06/14 03:44:39;;;;;;;2.33;1.40;;;22.40;51.40;;;;;;5032873;28;20022;-72
2022/06/14 03:47:37;;;;;;;3.25;1.27;;;22.40;51.40;;;;;;5034257;28;20079;-72
2022/06/14 03:50:08;;;;;;;3.38;1.02;;;22.40;51.40;;;;;;5021342;28;20091;-72
2022/06/14 03:52:58;;;;;;;4.82;1.20;;;22.40;51.40;;;;;;5033299;28;20026;-72
2022/06/14 03:55:45;;;;;;;4.80;1.48;;;22.40;51.50;;;;;;5017001;28;20057;-73
2022/06/14 03:58:24;;;;;;;4.38;1.40;;;22.50;51.40;;;;;;5033111;28;20057;-72
2022/06/14 04:00:56;;;;;;;5.57;1.40;;;22.50;51.50;;;;;;5033696;28;20033;-72
2022/06/14 04:03:45;;;;;;;2.45;1.20;;;22.40;51.40;;;;;;5033000;28;20036;-72
2022/06/14 04:06:42;;;;;;;3.75;1.27;;;22.40;51.40;;;;;;5034416;28;20029;-72
2022/06/14 04:09:35;;;;;;;4.05;1.40;;;22.40;51.40;;;;;;5024564;28;20042;-72
2022/06/14 04:12:15;;;;;;;3.15;1.20;;;22.40;51.50;;;;;;5034120;28;20033;-72
2022/06/14 04:15:02;;;;;;;2.45;1.27;;;22.50;51.50;;;;;;5033659;28;20042;-72
2022/06/14 04:17:46;;;;;;;4.22;1.33;;;22.40;51.50;;;;;;5033062;28;20025;-72
2022/06/14 04:20:22;;;;;;;2.85;1.27;;;22.50;51.60;;;;;;5033458;28;20041;-72
2022/06/14 04:23:32;;;;;;;3.05;1.45;;;22.50;51.60;;;;;;5032331;28;20116;-72
2022/06/14 04:26:11;;;;;;;5.68;1.42;;;22.50;51.60;;;;;;5011370;28;20044;-73
2022/06/14 04:28:44;;;;;;;6.90;1.35;;;22.40;51.60;;;;;;5010400;28;20029;-72
2022/06/14 04:31:24;;;;;;;5.43;1.50;;;22.40;51.60;;;;;;5016636;28;20045;-72
2022/06/14 04:33:58;;;;;;;;;;;22.40;51.60;;;;;;5034079;28;20109;-72
2022/06/14 04:36:54;;;;;;;2.85;1.10;;;22.40;51.50;;;;;;5032550;28;19909;-72
2022/06/14 04:39:30;;;;;;;5.90;1.88;;;22.40;51.60;;;;;;5032612;28;20025;-73
2022/06/14 04:42:08;;;;;;;4.03;1.42;;;22.50;51.60;;;;;;5033391;28;20534;-72
2022/06/14 04:44:51;;;;;;;4.10;1.50;;;22.40;51.60;;;;;;5031582;28;20032;-72
2022/06/14 04:47:33;;;;;;;6.30;1.80;;;22.40;51.60;;;;;;5014830;28;20037;-72
2022/06/14 04:50:09;;;;;;;4.35;1.40;;;22.40;51.60;;;;;;5032028;28;20033;-72
2022/06/14 04:52:45;;;;;;;3.72;1.58;;;22.40;51.60;;;;;;5015677;28;20029;-72
2022/06/14 04:55:22;;;;;;;2.28;1.38;;;22.50;52.20;;;;;;5031886;28;20022;-72
2022/06/14 04:57:53;;;;;;;3.42;1.58;;;22.40;51.60;;;;;;5030842;28;20033;-72
2022/06/14 05:00:29;;;;;;;4.55;1.88;;;22.40;51.60;;;;;;5032933;28;20026;-72
2022/06/14 05:03:04;;;;;;;4.20;1.40;;;22.50;51.70;;;;;;5033065;28;20026;-72
2022/06/14 05:05:46;;;;;;;5.45;1.55;;;22.50;51.70;;;;;;5032922;28;20036;-72
2022/06/14 05:08:35;;;;;;;4.10;1.40;;;22.50;51.60;;;;;;5030707;28;20521;-72
2022/06/14 05:11:08;;;;;;;3.22;1.55;;;22.40;51.60;;;;;;5029376;28;20454;-72
2022/06/14 05:14:08;;;;;;;3.25;1.45;;;22.50;51.70;;;;;;5032757;28;20041;-72
2022/06/14 05:16:59;;;;;;;3.63;1.70;;;22.40;51.70;;;;;;5032766;28;20036;-72
2022/06/14 05:19:28;;;;;;;3.60;1.77;;;22.40;51.60;;;;;;5031777;28;20037;-72
2022/06/14 05:22:09;;;;;;;3.88;1.10;;;22.40;51.60;;;;;;5032609;28;20564;-72
2022/06/14 05:24:36;;;;;;;3.83;1.70;;;22.40;51.70;;;;;;5032521;28;20037;-72
2022/06/14 05:27:14;;;;;;;3.63;1.60;;;22.40;51.70;;;;;;5032606;28;20439;-72
2022/06/14 05:30:01;;;;;;;3.08;1.40;;;22.40;51.70;;;;;;5031974;28;20026;-72
2022/06/14 05:32:50;;;;;;;4.82;2.00;;;22.40;51.70;;;;;;5031229;28;20060;-72
2022/06/14 05:35:30;;;;;;;3.17;1.50;;;22.40;51.70;;;;;;5032451;28;20100;-72
2022/06/14 05:38:15;;;;;;;2.35;1.30;;;22.40;51.70;;;;;;5031397;28;20030;-72
2022/06/14 05:41:00;;;;;;;6.43;1.70;;;22.50;51.70;;;;;;5032219;28;20033;-72
2022/06/14 05:43:44;;;;;;;4.03;1.52;;;22.50;51.70;;;;;;5030820;28;20032;-72
2022/06/14 05:46:25;;;;;;;5.28;1.65;;;22.40;51.70;;;;;;5032292;28;20033;-72
2022/06/14 05:49:00;;;;;;;4.80;1.60;;;22.40;51.70;;;;;;5031135;28;20021;-72
2022/06/14 05:51:33;;;;;;;3.45;1.60;;;22.40;51.60;;;;;;5032101;28;20055;-72
2022/06/14 05:54:05;;;;;;;4.05;1.67;;;22.40;51.60;;;;;;5031906;28;20048;-72
2022/06/14 05:56:39;;;;;;;3.13;1.42;;;22.50;51.60;;;;;;5030604;28;20488;-72
2022/06/14 05:59:14;;;;;;;3.75;1.65;;;22.50;51.60;;;;;;5031262;28;20032;-72
2022/06/14 06:01:50;;;;;;;4.25;1.63;;;22.50;51.60;;;;;;5031843;28;20033;-72
2022/06/14 06:04:38;;;;;;;3.65;1.70;;;22.50;51.60;;;;;;5030377;28;20031;-72
2022/06/14 06:07:09;;;;;;;4.07;1.50;;;22.60;51.70;;;;;;5031743;28;20394;-72
2022/06/14 06:09:46;;;;;;;3.90;1.60;;;22.50;51.70;;;;;;5030915;28;20021;-73
2022/06/14 06:12:21;;;;;;;4.78;1.80;;;22.60;51.60;;;;;;5031621;28;20026;-72
2022/06/14 06:14:53;;;;;;;3.55;1.58;;;22.50;51.60;;;;;;5030328;28;20124;-72
2022/06/14 06:17:31;;;;;;;3.92;1.75;;;22.50;51.60;;;;;;5030977;28;20036;-72
2022/06/14 06:20:13;;;;;;;4.25;1.60;;;22.50;51.60;;;;;;5030382;28;20578;-73
2022/06/14 06:23:18;;;;;;;4.63;1.70;;;22.50;51.70;;;;;;5031411;28;20075;-72
2022/06/14 06:25:52;;;;;;;3.70;1.60;;;22.50;51.70;;;;;;5027382;28;20033;-72
2022/06/14 06:28:25;;;;;;;5.95;1.80;;;22.50;51.60;;;;;;5030586;28;20037;-73
2022/06/14 06:31:03;;;;;;;5.00;1.60;;;22.50;51.60;;;;;;5031497;28;20036;-71
2022/06/14 06:33:36;;;;;;;3.90;1.80;;;22.50;51.60;;;;;;5029692;28;20098;-73
2022/06/14 06:36:21;;;;;;;5.32;1.80;;;22.50;51.70;;;;;;5031736;28;20033;-73
2022/06/14 06:39:05;;;;;;;6.15;2.20;;;22.60;51.80;;;;;;5030174;28;20076;-73
2022/06/14 06:41:50;;;;;;;7.82;2.25;;;22.50;52.10;;;;;;5030293;28;20037;-73
2022/06/14 06:44:32;;;;;;;9.82;2.67;;;22.50;52.70;;;;;;5030001;28;20539;-73
2022/06/14 06:47:05;;;;;;;9.00;2.40;;;22.60;53.50;;;;;;5031440;28;20049;-72
2022/06/14 06:49:47;;;;;;;10.25;2.60;;;22.50;53.40;;;;;;5030252;28;20033;-72
2022/06/14 06:52:16;;;;;;;9.35;2.47;;;22.40;52.60;;;;;;5031095;28;20021;-73
2022/06/14 06:54:49;;;;;;;14.23;2.78;;;22.40;51.20;;;;;;5028694;28;20032;-68
2022/06/14 06:57:19;;;;;;;9.07;2.38;;;22.30;49.90;;;;;;5030664;28;20033;-68
2022/06/14 06:59:48;;;;;;;8.88;2.47;;;22.30;51.00;;;;;;5015771;23;20475;-70
2022/06/14 07:02:34;;;;;;;11.27;2.65;;;22.30;51.10;;;;;;4989563;28;20023;-75
2022/06/14 07:05:05;;;;;;;11.43;2.38;;;22.20;49.80;;;;;;4989848;28;20468;-75
2022/06/14 07:07:47;;;;;;;13.05;2.72;;;22.20;48.90;;;;;;4989991;28;20030;-74
2022/06/14 07:10:21;;;;;;;12.20;2.85;;;22.30;50.20;;;;;;5011822;28;20048;-75
2022/06/14 07:13:12;;;;;;;12.68;4.65;;;22.30;50.70;;;;;;5015221;28;20492;-75
2022/06/14 07:16:00;;;;;;;19.60;8.30;;;22.30;49.80;;;;;;5014320;28;20022;-74
2022/06/14 07:18:31;;;;;;;16.13;6.65;;;22.10;49.10;;;;;;5014122;28;20134;-75
2022/06/14 07:21:02;;;;;;;15.07;5.35;;;22.10;48.30;;;;;;5015022;28;20030;-75
2022/06/14 07:23:41;;;;;;;14.75;5.53;;;22.00;48.60;;;;;;5015450;28;20452;-75
2022/06/14 07:26:14;;;;;;;11.77;4.35;;;22.00;47.10;;;;;;5013846;28;20038;-75
2022/06/14 07:29:03;;;;;;;18.27;4.25;;;22.00;47.10;;;;;;5013838;28;20483;-76
2022/06/14 07:31:44;;;;;;;11.95;3.50;;;22.00;47.60;;;;;;5014131;28;20331;-76
2022/06/14 07:34:11;;;;;;;11.40;3.55;;;22.00;47.20;;;;;;5013848;28;20030;-76
2022/06/14 07:37:04;;;;;;;10.75;2.40;;;22.00;47.00;;;;;;5013725;28;20505;-76
2022/06/14 07:39:56;;;;;;;12.55;2.80;;;22.00;46.80;;;;;;5007863;28;20029;-75
2022/06/14 07:42:31;;;;;;;8.75;2.53;;;22.00;46.70;;;;;;5014368;28;20088;-75
2022/06/14 07:45:22;;;;;;;10.40;2.60;;;22.00;46.30;;;;;;5013922;28;20037;-75
2022/06/14 07:48:18;;;;;;;13.05;2.40;;;22.00;46.30;;;;;;5014554;28;20037;-76
2022/06/14 07:51:00;;;;;;;15.35;2.85;;;22.00;46.10;;;;;;5014536;28;20112;-75
2022/06/14 07:53:37;;;;;;;13.60;2.83;;;22.10;46.10;;;;;;5015130;28;20059;-76
2022/06/14 07:56:15;;;;;;;31.42;5.82;;;22.10;46.40;;;;;;5013547;28;20036;-76
2022/06/14 07:58:46;;;;;;;25.75;4.93;;;22.20;47.10;;;;;;5013783;28;20037;-76
2022/06/14 08:01:20;;;;;;;17.73;4.28;;;22.20;47.10;;;;;;5014323;28;20530;-76
2022/06/14 08:03:59;;;;;;;23.80;3.40;;;22.20;46.80;;;;;;5014573;28;20033;-76
2022/06/14 08:06:35;;;;;;;19.02;3.60;;;22.20;46.90;;;;;;5011939;28;20026;-76
2022/06/14 08:09:03;;;;;;;20.65;3.38;;;22.10;45.90;;;;;;5013307;28;20449;-76
2022/06/14 08:11:41;;;;;;;17.63;2.72;;;22.10;45.80;;;;;;5013340;28;20033;-76
2022/06/14 08:14:14;;;;;;;14.80;2.35;;;22.00;45.20;;;;;;5014279;28;20493;-76
2022/06/14 08:16:41;;;;;;;10.05;2.67;;;22.00;45.50;;;;;;5014299;28;20026;-76
2022/06/14 08:19:11;;;;;;;12.77;2.70;;;21.90;45.10;;;;;;5013395;28;20030;-76
2022/06/14 08:21:46;;;;;;;14.18;2.22;;;21.90;45.60;;;;;;5014186;28;20470;-76
2022/06/14 08:24:19;;;;;;;14.75;2.50;;;21.80;44.90;;;;;;5014009;28;20105;-76
2022/06/14 08:26:55;;;;;;;11.35;2.17;;;21.80;44.90;;;;;;5013845;28;20105;-76
2022/06/14 08:29:31;;;;;;;12.50;2.15;;;21.80;45.10;;;;;;5012974;28;20080;-76
2022/06/14 08:32:17;;;;;;;8.98;1.85;;;21.80;44.50;;;;;;5013908;28;20034;-76
2022/06/14 08:34:51;;;;;;;11.32;2.50;;;21.80;44.50;;;;;;5012521;28;20478;-76
2022/06/14 08:37:26;;;;;;;7.85;2.13;;;21.80;44.10;;;;;;5011963;28;20054;-76
2022/06/14 08:40:02;;;;;;;9.43;2.20;;;21.80;44.30;;;;;;5013616;28;20034;-76
2022/06/14 08:42:52;;;;;;;10.60;1.83;;;21.70;43.90;;;;;;5012560;28;20029;-76
2022/06/14 08:45:48;;;;;;;9.32;2.22;;;21.60;43.50;;;;;;5014056;28;20030;-76
2022/06/14 08:48:28;;;;;;;11.88;2.25;;;21.60;43.30;;;;;;5013209;28;20060;-78
2022/06/14 08:51:26;;;;;;;12.02;2.17;;;21.40;44.20;;;;;;5013657;28;20048;-76
2022/06/14 08:54:10;;;;;;;14.43;2.17;;;20.90;43.20;;;;;;5013612;28;20033;-70
2022/06/14 08:57:04;;;;;;;10.98;2.15;;;20.10;43.10;;;;;;5012287;28;20439;-71
2022/06/14 08:59:45;;;;;;;9.43;2.00;;;20.50;43.80;;;;;;5011642;28;20038;-75
2022/06/14 09:02:27;;;;;;;9.35;2.00;;;20.60;43.60;;;;;;5013198;28;20034;-76
2022/06/14 09:05:10;;;;;;;8.07;2.05;;;20.90;44.20;;;;;;5013126;28;20026;-76
2022/06/14 09:07:51;;;;;;;12.93;2.25;;;21.20;43.60;;;;;;5012371;28;20033;-75
2022/06/14 09:10:54;;;;;;;8.88;2.22;;;21.40;43.50;;;;;;5013176;28;20034;-76
2022/06/14 09:13:51;;;;;;;10.25;2.00;;;21.60;43.30;;;;;;5013192;28;20026;-75
2022/06/14 09:16:54;;;;;;;9.00;2.08;;;21.60;43.80;;;;;;4994827;28;20564;-75
2022/06/14 09:19:46;;;;;;;9.32;1.95;;;21.70;43.40;;;;;;5012164;28;20029;-75
2022/06/14 09:22:26;;;;;;;8.38;1.92;;;21.80;43.00;;;;;;5010559;28;20038;-76
2022/06/14 09:25:27;;;;;;;8.60;2.00;;;21.80;42.80;;;;;;5009303;28;20058;-77
2022/06/14 09:28:13;;;;;;;9.88;1.73;;;21.80;43.60;;;;;;5000267;28;20042;-76
2022/06/14 09:30:52;;;;;;;9.85;2.03;;;21.80;43.90;;;;;;5008391;28;20053;-77
2022/06/14 09:33:27;;;;;;;11.23;1.92;;;21.80;43.80;;;;;;5008564;28;20034;-76
2022/06/14 09:36:32;;;;;;;4.60;1.60;;;21.90;43.60;;;;;;5010073;28;20410;-77
2022/06/14 09:39:29;;;;;;;9.02;1.77;;;21.90;44.10;;;;;;4977840;28;20030;-76
2022/06/14 09:42:19;;;;;;;6.35;1.55;;;21.90;44.10;;;;;;5010163;28;20434;-77
2022/06/14 09:44:51;;;;;;;11.40;1.98;;;21.90;44.80;;;;;;5005966;28;20030;-77
2022/06/14 09:47:40;;;;;;;7.03;1.80;;;21.90;44.20;;;;;;5008353;28;20045;-77
2022/06/14 09:50:33;;;;;;;8.30;1.73;;;21.90;44.30;;;;;;4992356;28;20026;-77
2022/06/14 09:53:13;;;;;;;7.35;2.05;;;22.00;44.60;;;;;;5010198;28;21001;-77
2022/06/14 09:55:51;;;;;;;8.88;2.15;;;21.90;44.60;;;;;;5006754;28;20040;-76
2022/06/14 09:58:28;;;;;;;12.10;2.25;;;22.00;45.00;;;;;;5007839;28;20089;-75
2022/06/14 10:01:07;;;;;;;10.70;1.95;;;22.10;45.20;;;;;;5009765;28;20029;-76
2022/06/14 10:03:49;;;;;;;9.25;2.17;;;22.10;45.90;;;;;;5009591;28;20037;-76
2022/06/14 10:06:57;;;;;;;9.57;1.98;;;22.20;45.90;;;;;;5007480;28;20044;-76
2022/06/14 10:09:41;;;;;;;9.38;2.25;;;22.30;46.60;;;;;;4974644;28;20084;-77
2022/06/14 10:12:31;;;;;;;12.93;2.25;;;22.30;46.70;;;;;;5008084;28;20034;-75
2022/06/14 10:15:13;;;;;;;12.98;2.78;;;22.30;47.00;;;;;;5010020;28;20080;-76
2022/06/14 10:18:22;;;;;;;14.35;2.90;;;22.30;47.20;;;;;;5011190;28;20059;-76
2022/06/14 10:20:57;;;;;;;21.88;2.55;;;22.30;47.10;;;;;;5011917;28;20037;-77
2022/06/14 10:23:55;;;;;;;8.18;2.40;;;22.20;47.30;;;;;;5012455;28;20430;-74
2022/06/14 10:29:59;;;;;;;12.85;2.40;;;22.10;46.70;;;;;;5011236;28;20029;-73
2022/06/14 10:32:50;;;;;;;10.00;2.60;;;22.10;46.00;;;;;;5011726;28;20483;-73
2022/06/14 10:35:40;;;;;;;17.80;2.80;;;22.10;46.20;;;;;;5011442;28;20022;-73
2022/06/14 10:38:27;;;;;;;27.88;3.53;;;22.10;46.30;;;;;;5010580;28;20072;-73
2022/06/14 10:41:23;;;;;;;28.45;3.58;;;22.00;45.60;;;;;;4994020;28;20034;-72
2022/06/14 10:44:21;;;;;;;25.60;3.75;;;22.00;45.50;;;;;;5011227;28;20402;-73
2022/06/14 10:47:09;;;;;;;29.50;4.18;;;22.00;45.70;;;;;;5011440;28;20037;-72
2022/06/14 10:49:56;;;;;;;19.35;3.33;;;22.00;45.90;;;;;;5008865;28;20033;-71
2022/06/14 10:52:59;;;;;;;16.98;3.40;;;22.00;45.70;;;;;;5011435;28;20438;-72
2022/06/14 10:55:44;;;;;;;14.43;3.05;;;22.00;45.60;;;;;;4993592;28;20580;-73
2022/06/14 10:58:38;;;;;;;15.38;3.22;;;22.00;45.50;;;;;;5007236;28;20038;-72
2022/06/14 11:01:43;;;;;;;10.95;3.05;;;22.00;45.20;;;;;;5009560;28;20034;-71
2022/06/14 11:04:09;;;;;;;13.98;2.58;;;22.10;45.90;;;;;;5009761;28;20034;-73
2022/06/14 11:06:56;;;;;;;11.60;3.00;;;22.10;44.80;;;;;;5009901;28;20034;-72
2022/06/14 11:10:05;;;;;;;10.63;2.65;;;22.00;45.20;;;;;;5010141;28;20022;-72
2022/06/14 11:12:42;;;;;;;8.40;2.53;;;22.10;45.70;;;;;;5009723;28;20034;-72
2022/06/14 11:15:46;;;;;;;26.83;5.07;;;22.10;45.00;;;;;;5009178;28;20041;-73
2022/06/14 11:18:50;;;;;;;8.85;2.20;;;22.10;44.50;;;;;;5000849;28;20401;-72
2022/06/14 11:21:30;;;;;;;9.70;2.28;;;22.00;44.60;;;;;;5009727;28;20041;-73
2022/06/14 11:23:59;;;;;;;46.42;9.88;;;22.00;44.50;;;;;;5011335;28;20312;-72
2022/06/14 11:26:41;;;;;;;10.70;2.73;;;22.00;44.60;;;;;;5010255;28;20030;-72
2022/06/14 11:29:24;;;;;;;25.42;6.05;;;22.00;44.90;;;;;;5009987;28;20029;-73
2022/06/14 11:31:52;;;;;;;57.42;14.27;;;22.00;44.60;;;;;;5010849;28;20030;-73
2022/06/14 11:34:21;;;;;;;34.08;8.60;;;22.00;44.70;;;;;;5003951;28;20038;-73
2022/06/14 11:37:13;;;;;;;80.45;19.67;;;22.00;44.30;;;;;;5008337;28;20044;-73
2022/06/14 11:39:44;;;;;;;50.25;13.68;;;21.90;45.60;;;;;;5008095;28;20038;-72
2022/06/14 11:42:20;;;;;;;40.67;11.75;;;21.90;45.10;;;;;;5006591;28;20095;-73
2022/06/14 11:45:17;;;;;;;45.45;10.52;;;21.90;44.90;;;;;;5007564;28;20054;-73
2022/06/14 11:47:56;;;;;;;34.40;8.38;;;22.00;44.80;;;;;;4990034;28;20121;-73
2022/06/14 11:50:43;;;;;;;28.77;7.22;;;22.00;44.60;;;;;;4991685;28;20125;-73
2022/06/14 11:53:48;;;;;;;23.17;6.45;;;22.00;44.70;;;;;;5008527;28;20029;-72
2022/06/14 11:56:54;;;;;;;34.25;7.45;;;22.00;44.90;;;;;;4985845;28;20598;-73
2022/06/14 11:59:25;;;;;;;23.05;6.63;;;22.00;45.20;;;;;;4907036;29;20083;-73
2022/06/14 12:02:32;;;;;;;19.48;4.95;;;22.00;45.20;;;;;;4984751;28;20119;-74
2022/06/14 12:05:22;;;;;;;14.35;3.50;;;22.00;44.90;;;;;;4991272;28;20495;-75
2022/06/14 12:08:19;;;;;;;18.00;5.47;;;22.10;44.50;;;;;;5012364;28;20022;-78
2022/06/14 12:10:55;;;;;;;11.75;3.72;;;22.10;44.90;;;;;;5013736;28;20034;-77
2022/06/14 12:13:48;;;;;;;15.07;3.65;;;22.50;42.80;;;;;;5014185;28;20045;-78
2022/06/14 12:16:22;;;;;;;11.68;3.03;;;22.40;43.50;;;;;;5012808;28;20068;-75
2022/06/14 12:19:08;;;;;;;13.40;3.30;;;22.20;43.90;;;;;;5013468;28;20574;-75
2022/06/14 12:21:46;;;;;;;15.43;3.28;;;22.20;44.70;;;;;;4996508;28;20057;-76
2022/06/14 12:24:20;;;;;;;19.52;3.15;;;22.10;45.00;;;;;;5012994;28;20026;-75
2022/06/14 12:26:59;;;;;;;14.70;3.33;;;22.10;45.10;;;;;;5013953;28;20072;-75
2022/06/14 12:29:40;;;;;;;16.17;4.13;;;22.20;45.30;;;;;;5011489;28;20030;-75
2022/06/14 12:32:23;;;;;;;13.73;3.00;;;22.10;45.20;;;;;;5014323;28;20033;-74
2022/06/14 12:35:09;;;;;;;15.70;3.38;;;22.10;45.30;;;;;;5013688;28;20053;-75
2022/06/14 12:37:50;;;;;;;13.55;4.28;;;22.00;44.40;;;;;;5012979;28;20033;-78
2022/06/14 12:40:29;;;;;;;14.20;3.25;;;22.00;45.30;;;;;;5013709;28;20108;-77
2022/06/14 12:43:05;;;;;;;14.93;3.88;;;22.10;45.70;;;;;;5012396;28;20494;-76
2022/06/14 12:45:43;;;;;;;15.73;3.35;;;22.10;45.30;;;;;;5012184;28;20053;-76
2022/06/14 12:48:14;;;;;;;12.07;3.10;;;22.10;45.40;;;;;;5012595;28;20057;-76
2022/06/14 12:50:44;;;;;;;9.35;3.28;;;22.10;45.20;;;;;;5013574;28;20029;-76
2022/06/14 12:53:47;;;;;;;10.40;3.10;;;22.10;45.40;;;;;;5013509;28;20029;-76
2022/06/14 12:56:49;;;;;;;10.63;3.13;;;22.10;45.40;;;;;;5012040;28;20081;-75
2022/06/14 12:59:43;;;;;;;14.05;3.03;;;22.10;45.90;;;;;;4976949;28;20406;-74
2022/06/14 13:02:15;;;;;;;14.38;3.20;;;22.10;46.60;;;;;;5013715;28;20522;-72
2022/06/14 13:05:11;;;;;;;7.93;2.80;;;22.10;46.40;;;;;;5021292;28;20022;-74
2022/06/14 13:08:11;;;;;;;8.85;2.70;;;22.10;46.10;;;;;;5006965;28;20498;-74
2022/06/14 13:10:55;;;;;;;11.70;2.88;;;22.10;45.90;;;;;;5027087;28;20026;-73
2022/06/14 13:14:05;;;;;;;11.38;2.83;;;22.20;46.10;;;;;;5011386;28;20029;-73
2022/06/14 13:16:52;;;;;;;11.75;2.75;;;22.20;46.30;;;;;;4960486;28;20150;-73
2022/06/14 13:19:43;;;;;;;16.42;3.47;;;22.20;46.10;;;;;;5010962;28;20046;-74
2022/06/14 13:22:32;;;;;;;13.45;3.42;;;22.20;47.90;;;;;;5009758;28;20030;-74
2022/06/14 13:25:36;;;;;;;10.27;2.75;;;22.30;47.70;;;;;;5010159;28;20054;-74
2022/06/14 13:28:31;;;;;;;8.13;3.05;;;22.20;47.50;;;;;;4974430;28;20089;-74
2022/06/14 13:31:15;;;;;;;11.60;3.03;;;22.20;48.00;;;;;;5012391;28;20034;-73
2022/06/14 13:34:07;;;;;;;9.23;3.38;;;22.20;48.90;;;;;;5012737;28;20037;-73
2022/06/14 13:37:08;;;;;;;12.32;2.85;;;22.30;48.00;;;;;;5010153;28;20092;-76
2022/06/14 13:39:37;;;;;;;12.75;3.20;;;22.30;49.30;;;;;;5008279;28;20037;-74
2022/06/14 13:42:15;;;;;;;17.42;3.20;;;22.30;47.80;;;;;;5010246;28;20446;-74
2022/06/14 13:44:49;;;;;;;13.75;3.17;;;22.20;48.60;;;;;;5006247;28;20036;-74
2022/06/14 13:47:39;;;;;;;11.40;2.92;;;22.20;48.30;;;;;;5005377;28;20033;-75
2022/06/14 13:50:06;;;;;;;;;;;22.20;47.80;;;;;;5008474;28;20112;-76
2022/06/14 13:52:54;;;;;;;11.13;3.15;;;22.20;48.10;;;;;;5011164;28;20408;-75
2022/06/14 13:55:32;;;;;;;9.18;2.75;;;22.20;48.70;;;;;;5003877;28;20026;-74
2022/06/14 13:58:36;;;;;;;14.30;3.53;;;22.20;47.70;;;;;;5003532;28;20132;-76
2022/06/14 14:01:44;;;;;;;13.15;2.80;;;22.30;48.40;;;;;;4991667;28;20104;-75
2022/06/14 14:04:30;;;;;;;12.13;3.55;;;22.20;48.10;;;;;;4968466;28;20036;-76
2022/06/14 14:07:25;;;;;;;11.68;4.03;;;22.20;47.60;;;;;;5007018;28;20026;-75